createdAt,value
2023-03-30T00:00:19.019Z,7.75
2023-03-30T00:05:45.723Z,8.10
2023-03-30T00:10:55.133Z,7.75
2023-03-30T00:16:01.516Z,6.90
2023-03-30T00:21:09.890Z,7.18
2023-03-30T00:26:18.763Z,6.83
2023-03-30T00:31:25.064Z,7.93
2023-03-30T00:36:37.358Z,8.13
2023-03-30T00:41:45.108Z,6.70
2023-03-30T00:46:51.620Z,7.60
2023-03-30T00:51:58.020Z,7.13
2023-03-30T00:57:07.850Z,7.35
2023-03-30T01:02:14.796Z,7.63
2023-03-30T01:07:24.598Z,7.93
2023-03-30T01:12:32.404Z,8.23
2023-03-30T01:18:01.007Z,7.82
2023-03-30T01:23:48.988Z,7.88
2023-03-30T01:29:04.727Z,5.57
2023-03-30T01:34:58.136Z,7.28
2023-03-30T01:40:13.511Z,6.68
2023-03-30T01:45:30.183Z,7.43
2023-03-30T01:50:42.117Z,7.97
2023-03-30T01:55:57.279Z,7.47
2023-03-30T02:01:08.228Z,7.05
2023-03-30T02:06:23.733Z,7.65
2023-03-30T02:11:35.583Z,6.40
2023-03-30T02:16:49.311Z,6.75
2023-03-30T02:21:56.571Z,6.78
2023-03-30T02:27:06.234Z,7.07
2023-03-30T02:37:45.336Z,6.32
2023-03-30T02:43:09.121Z,8.57
2023-03-30T02:48:31.167Z,6.45
2023-03-30T02:53:46.802Z,7.25
2023-03-30T02:59:14.584Z,7.53
2023-03-30T03:04:24.002Z,7.53
2023-03-30T03:09:49.666Z,7.15
2023-03-30T03:14:58.157Z,7.85
2023-03-30T03:20:06.439Z,7.85
2023-03-30T03:25:13.247Z,7.47
2023-03-30T03:30:34.354Z,6.70
2023-03-30T03:36:00.560Z,7.10
2023-03-30T03:41:09.820Z,7.18
2023-03-30T03:46:19.320Z,6.37
2023-03-30T03:51:25.850Z,6.88
2023-03-30T03:56:32.618Z,6.20
2023-03-30T04:01:40.774Z,8.15
2023-03-30T04:06:48.115Z,7.82
2023-03-30T04:11:54.424Z,7.18
2023-03-30T04:17:18.424Z,7.20
2023-03-30T04:22:50.637Z,7.05
2023-03-30T04:28:11.994Z,7.50
2023-03-30T04:33:47.415Z,9.13
2023-03-30T04:39:18.461Z,10.10
2023-03-30T04:44:44.514Z,9.50
2023-03-30T04:50:02.987Z,8.32
2023-03-30T04:55:28.319Z,8.13
2023-03-30T05:00:58.665Z,8.55
2023-03-30T05:06:35.981Z,7.55
2023-03-30T05:12:15.179Z,8.88
2023-03-30T05:17:38.875Z,9.25
2023-03-30T05:23:09.041Z,9.65
2023-03-30T05:28:34.016Z,8.65
2023-03-30T05:34:07.024Z,8.63
2023-03-30T05:39:33.620Z,9.27
2023-03-30T05:45:11.514Z,8.32
2023-03-30T05:50:24.700Z,12.55
2023-03-30T05:55:39.724Z,9.63
2023-03-30T06:01:06.173Z,8.98
2023-03-30T06:06:18.330Z,6.70
2023-03-30T06:11:29.577Z,7.75
2023-03-30T06:16:46.641Z,7.90
2023-03-30T06:21:54.855Z,8.95
2023-03-30T06:27:08.698Z,7.65
2023-03-30T06:32:15.770Z,8.27
2023-03-30T06:37:45.330Z,7.68
2023-03-30T06:42:53.567Z,7.63
2023-03-30T06:48:07.495Z,7.53
2023-03-30T06:53:18.193Z,8.05
2023-03-30T06:58:30.116Z,7.70
2023-03-30T07:03:36.532Z,7.75
2023-03-30T07:08:58.862Z,7.10
2023-03-30T07:14:07.817Z,7.28
2023-03-30T07:19:14.942Z,7.70
2023-03-30T07:24:21.583Z,8.82
2023-03-30T07:29:29.690Z,7.57
2023-03-30T07:34:36.690Z,7.88
2023-03-30T07:39:43.620Z,7.90
2023-03-30T07:44:52.665Z,7.20
2023-03-30T07:50:02.455Z,7.55
2023-03-30T07:55:11.369Z,6.88
2023-03-30T08:00:28.852Z,6.75
2023-03-30T08:06:01.012Z,7.40
2023-03-30T08:11:11.624Z,7.82
2023-03-30T08:16:22.262Z,8.02
2023-03-30T08:21:28.808Z,7.30
2023-03-30T08:26:36.623Z,8.00
2023-03-30T08:31:44.295Z,7.43
2023-03-30T08:36:50.562Z,7.63
2023-03-30T08:42:23.848Z,7.22
2023-03-30T08:47:54.616Z,8.25
2023-03-30T08:58:18.294Z,7.10
2023-03-30T09:03:38.640Z,7.35
2023-03-30T09:08:45.622Z,6.80
2023-03-30T09:13:53.365Z,7.00
2023-03-30T09:19:05.573Z,7.28
2023-03-30T09:24:20.601Z,7.53
2023-03-30T09:29:31.774Z,6.80
2023-03-30T09:34:47.640Z,6.00
2023-03-30T09:39:54.221Z,7.15
2023-03-30T09:45:07.584Z,6.60
2023-03-30T09:50:23.549Z,9.05
2023-03-30T09:55:33.263Z,12.45
2023-03-30T10:00:40.104Z,8.68
2023-03-30T10:06:02.360Z,7.32
2023-03-30T10:11:09.468Z,8.35
2023-03-30T10:16:27.948Z,8.70
2023-03-30T10:21:41.485Z,7.03
2023-03-30T10:26:49.082Z,8.07
2023-03-30T10:32:03.758Z,6.13
2023-03-30T10:37:17.405Z,5.20
2023-03-30T10:42:28.248Z,7.40
2023-03-30T10:47:54.668Z,7.35
2023-03-30T10:53:21.632Z,6.25
2023-03-30T10:58:54.600Z,8.35
2023-03-30T11:04:20.470Z,5.90
2023-03-30T11:09:34.191Z,6.10
2023-03-30T11:14:49.056Z,6.07
2023-03-30T11:20:00.606Z,6.30
2023-03-30T11:25:23.763Z,5.82
2023-03-30T11:30:33.396Z,5.80
2023-03-30T11:35:47.563Z,5.82
2023-03-30T11:41:00.700Z,5.93
2023-03-30T11:46:16.282Z,6.18
2023-03-30T11:51:53.008Z,5.43
2023-03-30T11:57:11.499Z,5.35
2023-03-30T12:02:33.344Z,5.63
2023-03-30T12:07:50.261Z,5.90
2023-03-30T12:12:59.469Z,5.25
2023-03-30T12:18:17.418Z,5.20
2023-03-30T12:23:38.165Z,4.43
2023-03-30T12:29:40.582Z,4.93
2023-03-30T12:34:27.877Z,4.90
2023-03-30T12:39:45.363Z,4.90
2023-03-30T12:45:26.553Z,5.20
2023-03-30T12:50:45.630Z,5.30
2023-03-30T12:56:01.927Z,6.05
2023-03-30T13:01:38.901Z,6.32
2023-03-30T13:06:54.107Z,5.50
2023-03-30T13:12:44.457Z,5.40
2023-03-30T13:18:02.321Z,4.70
2023-03-30T13:23:34.135Z,4.80
2023-03-30T13:29:06.396Z,3.83
2023-03-30T13:34:33.055Z,4.72
2023-03-30T13:39:47.548Z,4.30
2023-03-30T13:45:06.397Z,3.17
2023-03-30T13:50:26.115Z,3.03
2023-03-30T13:55:39.306Z,3.78
2023-03-30T14:00:51.684Z,3.10
2023-03-30T14:06:05.879Z,2.58
2023-03-30T14:11:20.002Z,2.42
2023-03-30T14:16:29.122Z,2.78
2023-03-30T14:21:40.376Z,3.28
2023-03-30T14:26:50.690Z,2.28
2023-03-30T14:32:07.297Z,2.72
2023-03-30T14:37:20.550Z,3.58
2023-03-30T14:42:34.095Z,2.30
2023-03-30T14:47:41.075Z,3.58
2023-03-30T14:52:50.806Z,3.63
2023-03-30T14:57:57.659Z,3.55
2023-03-30T15:03:06.161Z,3.95
2023-03-30T15:08:23.190Z,3.13
2023-03-30T15:13:37.727Z,3.13
2023-03-30T15:18:44.582Z,3.55
2023-03-30T15:23:53.551Z,4.15
2023-03-30T15:29:01.987Z,3.83
2023-03-30T15:34:17.103Z,2.72
2023-03-30T15:39:34.036Z,3.55
2023-03-30T15:44:42.339Z,4.20
2023-03-30T15:49:52.892Z,7.40
2023-03-30T15:55:08.594Z,11.10
2023-03-30T16:00:20.750Z,7.60
2023-03-30T16:05:29.346Z,7.82
2023-03-30T16:10:38.899Z,12.25
2023-03-30T16:15:45.682Z,9.63
2023-03-30T16:20:52.616Z,9.98
2023-03-30T16:26:02.234Z,9.55
2023-03-30T16:31:16.845Z,7.93
2023-03-30T16:36:26.060Z,4.60
2023-03-30T16:41:34.798Z,3.85
2023-03-30T16:46:42.614Z,4.45
2023-03-30T16:51:50.774Z,4.50
2023-03-30T16:56:59.018Z,4.43
2023-03-30T17:02:08.347Z,4.57
2023-03-30T17:07:19.730Z,4.10
2023-03-30T17:12:28.457Z,5.53
2023-03-30T17:17:37.381Z,4.50
2023-03-30T17:27:56.364Z,5.68
2023-03-30T17:33:04.757Z,5.65
2023-03-30T17:38:15.326Z,5.97
2023-03-30T17:43:25.728Z,5.68
2023-03-30T17:48:34.095Z,6.85
2023-03-30T17:53:44.871Z,6.53
2023-03-30T17:58:55.189Z,6.88
2023-03-30T18:04:04.820Z,7.05
2023-03-30T18:09:18.862Z,7.32
2023-03-30T18:14:35.487Z,6.18
2023-03-30T18:19:44.896Z,8.68
2023-03-30T18:24:57.433Z,8.88
2023-03-30T18:30:20.372Z,12.05
2023-03-30T18:35:33.438Z,11.63
2023-03-30T18:40:46.349Z,11.10
2023-03-30T18:46:02.261Z,9.48
2023-03-30T18:51:14.926Z,8.80
2023-03-30T18:56:25.181Z,9.93
2023-03-30T19:01:39.494Z,13.25
2023-03-30T19:06:49.747Z,12.13
2023-03-30T19:12:00.349Z,10.73
2023-03-30T19:17:12.288Z,10.73
2023-03-30T19:22:22.537Z,12.07
2023-03-30T19:27:32.733Z,15.48
2023-03-30T19:32:44.274Z,12.13
2023-03-30T19:37:56.739Z,12.20
2023-03-30T19:43:05.438Z,12.63
2023-03-30T19:48:22.047Z,10.88
2023-03-30T19:53:32.130Z,11.88
2023-03-30T19:58:43.972Z,12.15
2023-03-30T20:03:57.632Z,11.35
2023-03-30T20:09:05.612Z,10.95
2023-03-30T20:14:13.725Z,10.48
2023-03-30T20:19:29.324Z,10.20
2023-03-30T20:24:59.260Z,10.23
2023-03-30T20:30:09.461Z,8.93
2023-03-30T20:35:20.352Z,8.98
2023-03-30T20:40:28.085Z,9.57
2023-03-30T20:45:46.836Z,9.40
2023-03-30T20:56:06.035Z,8.07
2023-03-30T21:01:18.939Z,9.13
2023-03-30T21:06:29.138Z,9.10
2023-03-30T21:11:39.354Z,7.90
2023-03-30T21:16:48.077Z,10.35
2023-03-30T21:27:02.569Z,9.43
2023-03-30T21:32:09.268Z,9.52
2023-03-30T21:37:18.182Z,8.85
2023-03-30T21:42:25.232Z,8.75
2023-03-30T21:47:50.068Z,9.27
2023-03-30T21:53:01.135Z,9.90
2023-03-30T21:58:07.604Z,7.95
2023-03-30T22:03:14.328Z,8.07
2023-03-30T22:08:22.228Z,8.13
2023-03-30T22:13:29.579Z,7.38
2023-03-30T22:18:37.603Z,8.20
2023-03-30T22:23:45.524Z,8.30
2023-03-30T22:28:51.941Z,8.15
2023-03-30T22:33:58.642Z,8.23
2023-03-30T22:39:10.936Z,8.68
2023-03-30T22:44:18.507Z,7.30
2023-03-30T22:49:25.679Z,7.75
2023-03-30T22:54:33.930Z,5.53
2023-03-30T22:59:40.269Z,5.38
2023-03-30T23:04:49.514Z,5.65
2023-03-30T23:09:58.858Z,5.20
2023-03-30T23:15:05.713Z,4.75
2023-03-30T23:20:13.410Z,4.90
2023-03-30T23:25:21.505Z,5.05
2023-03-30T23:30:28.060Z,4.85
2023-03-30T23:35:34.618Z,4.13
2023-03-30T23:40:42.606Z,3.92
2023-03-30T23:45:49.319Z,4.35
2023-03-30T23:50:55.915Z,3.58
2023-03-30T23:56:06.642Z,4.03
